Time;durP1;ratioP1;P1;durP2;ratioP2;P2;SDS_P1;SDS_P2;PMS_P1;PMS_P2;Temp;Humidity;BMP_temperature;BMP_pressure;BME280_temperature;BME280_humidity;BME280_pressure;Samples;Min_cycle;Max_cycle;Signal;HPM_P1;HPM_P2
2022/08/05 00:06:46;;;;;;;0.20;0.00;;;25.40;99.90;;;;;;25699297;23;20202;-70
2022/08/05 00:16:55;;;;;;;0.20;0.00;;;25.50;99.90;;;;;;25700338;23;20154;-69
2022/08/05 00:26:59;;;;;;;0.20;0.00;;;25.40;99.90;;;;;;25700001;23;20202;-69
2022/08/05 00:37:08;;;;;;;0.20;0.00;;;25.60;99.90;;;;;;25698943;23;20186;-69
2022/08/05 00:47:17;;;;;;;0.20;0.00;;;25.60;99.90;;;;;;25699259;23;20190;-68
2022/08/05 00:57:22;;;;;;;0.20;0.00;;;25.70;99.90;;;;;;25672791;23;20163;-69
2022/08/05 01:07:34;;;;;;;0.20;0.00;;;25.40;99.90;;;;;;25697960;23;20548;-69
2022/08/05 01:17:45;;;;;;;0.20;0.00;;;25.40;99.90;;;;;;25697945;23;20170;-68
2022/08/05 01:28:32;;;;;;;0.20;0.00;;;25.20;99.90;;;;;;25697539;23;20189;-68
2022/08/05 01:38:38;;;;;;;0.20;0.00;;;25.20;99.90;;;;;;25637239;23;20191;-69
2022/08/05 01:48:45;;;;;;;0.20;0.00;;;25.30;99.90;;;;;;25704941;23;20193;-69
2022/08/05 01:58:54;;;;;;;0.20;0.00;;;25.20;99.90;;;;;;25705163;23;20206;-68
2022/08/05 02:09:00;;;;;;;0.20;0.10;;;25.10;99.90;;;;;;25702753;23;20217;-68
2022/08/05 02:19:16;;;;;;;0.20;0.00;;;25.00;99.90;;;;;;25704741;23;20174;-69
2022/08/05 02:29:24;;;;;;;0.20;0.00;;;25.00;99.90;;;;;;25704455;23;20236;-68
2022/08/05 02:39:50;;;;;;;0.20;0.00;;;24.80;99.90;;;;;;25703594;23;20196;-69
2022/08/05 02:49:56;;;;;;;0.20;0.00;;;24.90;99.90;;;;;;25702290;23;20186;-69
2022/08/05 03:00:01;;;;;;;0.20;0.00;;;24.70;99.90;;;;;;25677584;23;20202;-68
2022/08/05 03:10:07;;;;;;;0.20;0.00;;;24.70;99.90;;;;;;25676962;23;20205;-68
2022/08/05 03:20:12;;;;;;;0.20;0.00;;;24.60;99.90;;;;;;25703036;23;20178;-68
2022/08/05 03:30:17;;;;;;;0.20;0.00;;;24.70;99.90;;;;;;25675753;23;20206;-70
2022/08/05 03:40:30;;;;;;;0.20;0.00;;;24.80;99.90;;;;;;25674638;23;20166;-70
2022/08/05 03:50:43;;;;;;;0.20;0.00;;;25.10;99.90;;;;;;25700569;23;20189;-70
2022/08/05 04:00:49;;;;;;;0.20;0.00;;;25.30;99.90;;;;;;25699609;23;20212;-69
2022/08/05 04:10:56;;;;;;;0.20;0.00;;;25.40;99.90;;;;;;25699734;23;20241;-70
2022/08/05 04:21:04;;;;;;;0.20;0.00;;;25.40;99.90;;;;;;25698869;23;20171;-71
2022/08/05 04:31:09;;;;;;;0.20;0.00;;;25.50;99.90;;;;;;25698589;23;20206;-69
2022/08/05 04:41:14;;;;;;;0.20;0.00;;;25.40;99.90;;;;;;25698835;23;20161;-69
2022/08/05 04:51:19;;;;;;;0.20;0.10;;;25.30;99.90;;;;;;25698141;23;20250;-70
2022/08/05 05:01:25;;;;;;;0.20;0.00;;;25.30;99.90;;;;;;25696912;23;20249;-71
2022/08/05 05:11:37;;;;;;;0.20;0.10;;;25.20;99.90;;;;;;25696096;23;20209;-70
2022/08/05 05:21:58;;;;;;;0.20;0.10;;;25.30;99.90;;;;;;25695933;23;20178;-73
2022/08/05 05:32:23;;;;;;;0.20;0.00;;;25.50;99.90;;;;;;25695608;23;20186;-72
2022/08/05 05:42:28;;;;;;;0.20;0.00;;;25.50;99.90;;;;;;25695627;23;20154;-68
2022/08/05 05:52:33;;;;;;;0.20;0.10;;;25.80;99.90;;;;;;25694933;23;20250;-71
2022/08/05 06:02:43;;;;;;;0.20;0.00;;;26.10;99.90;;;;;;25668019;23;20201;-69
2022/08/05 06:12:48;;;;;;;0.20;0.00;;;26.50;99.90;;;;;;25694316;23;20217;-69
2022/08/05 06:22:52;;;;;;;0.20;0.00;;;26.80;99.90;;;;;;25692677;23;20251;-69
2022/08/05 06:32:57;;;;;;;0.20;0.00;;;27.20;99.90;;;;;;25698799;23;20237;-68
2022/08/05 06:43:01;;;;;;;0.20;0.00;;;27.70;99.90;;;;;;25671784;23;20205;-69
2022/08/05 06:53:06;;;;;;;0.20;0.00;;;28.10;99.90;;;;;;25697869;23;20194;-69
2022/08/05 07:03:14;;;;;;;0.20;0.00;;;28.20;99.90;;;;;;25670971;23;20283;-69
2022/08/05 07:24:01;;;;;;;0.20;0.00;;;28.20;99.90;;;;;;25697266;23;20194;-70
2022/08/05 07:34:15;;;;;;;0.20;0.00;;;28.30;99.90;;;;;;25698152;23;20181;-70
2022/08/05 07:44:24;;;;;;;0.20;0.00;;;28.50;99.90;;;;;;25695222;23;20185;-69
2022/08/05 07:54:30;;;;;;;0.20;0.00;;;28.70;99.90;;;;;;25692458;23;20212;-70
2022/08/05 08:04:43;;;;;;;0.20;0.10;;;28.70;99.90;;;;;;25667322;23;20250;-70
2022/08/05 08:14:49;;;;;;;0.20;0.00;;;29.20;99.90;;;;;;25667687;23;20190;-70
2022/08/05 08:24:53;;;;;;;0.20;0.00;;;29.50;99.90;;;;;;25695077;23;20262;-70
2022/08/05 08:35:09;;;;;;;0.20;0.00;;;29.40;99.90;;;;;;25693114;23;20158;-71
2022/08/05 08:45:16;;;;;;;0.20;0.00;;;29.40;99.90;;;;;;25693395;23;20297;-73
2022/08/05 08:55:32;;;;;;;0.20;0.00;;;29.80;99.90;;;;;;25680324;23;20166;-69
2022/08/05 09:05:55;;;;;;;0.20;0.00;;;30.10;99.90;;;;;;25691745;23;20210;-68
2022/08/05 09:16:15;;;;;;;0.20;0.00;;;29.80;99.90;;;;;;25692293;23;20173;-70
2022/08/05 09:26:19;;;;;;;0.20;0.00;;;30.40;99.90;;;;;;25691081;23;20189;-70
2022/08/05 09:36:39;;;;;;;0.20;0.08;;;30.30;99.90;;;;;;25692126;23;20166;-70
2022/08/05 09:47:08;;;;;;;0.20;0.00;;;30.10;99.90;;;;;;25693234;23;20193;-71
2022/08/05 09:57:29;;;;;;;0.20;0.00;;;30.40;99.90;;;;;;25692494;23;20185;-71
2022/08/05 10:07:48;;;;;;;0.20;0.00;;;30.90;99.90;;;;;;25699024;23;20197;-70
2022/08/05 10:18:15;;;;;;;0.20;0.00;;;31.70;99.90;;;;;;25696657;23;20170;-71
2022/08/05 10:28:20;;;;;;;0.20;0.00;;;31.90;99.90;;;;;;25699733;23;20194;-70
2022/08/05 10:38:35;;;;;;;0.20;0.00;;;32.10;99.90;;;;;;25688428;23;20184;-70
2022/08/05 10:48:40;;;;;;;0.20;0.00;;;32.30;99.90;;;;;;25698105;23;20264;-70
2022/08/05 10:59:06;;;;;;;0.20;0.00;;;33.00;99.90;;;;;;25670993;23;20261;-71
2022/08/05 11:09:38;;;;;;;0.20;0.00;;;32.70;99.90;;;;;;25697563;23;20213;-71
2022/08/05 11:19:52;;;;;;;0.20;0.00;;;32.60;99.90;;;;;;25671042;23;20182;-71
2022/08/05 11:30:13;;;;;;;0.20;0.00;;;34.60;99.90;;;;;;25697377;23;20198;-70
2022/08/05 11:40:19;;;;;;;0.20;0.00;;;33.70;99.90;;;;;;25696857;23;20177;-71
2022/08/05 11:50:25;;;;;;;0.20;0.00;;;32.70;99.90;;;;;;25697763;23;20219;-72
2022/08/05 12:00:31;;;;;;;0.20;0.00;;;33.50;99.90;;;;;;25695925;23;20186;-71
2022/08/05 12:10:42;;;;;;;0.20;0.00;;;34.10;99.90;;;;;;25669374;23;20224;-72
2022/08/05 12:20:50;;;;;;;0.20;0.00;;;34.90;99.90;;;;;;25693762;23;20170;-71
2022/08/05 12:30:56;;;;;;;0.20;0.00;;;35.50;99.90;;;;;;25691945;23;20236;-71
2022/08/05 12:41:01;;;;;;;0.20;0.00;;;36.20;99.90;;;;;;25693069;23;20220;-72
2022/08/05 12:51:12;;;;;;;0.20;0.00;;;36.10;99.90;;;;;;25667146;23;20237;-69
2022/08/05 13:01:37;;;;;;;0.20;0.00;;;36.10;99.90;;;;;;25690056;23;20198;-70
2022/08/05 13:12:06;;;;;;;0.20;0.00;;;36.60;99.90;;;;;;25689628;23;20186;-71
2022/08/05 13:22:17;;;;;;;0.20;0.00;;;37.10;99.90;;;;;;25689201;23;20158;-71
2022/08/05 13:32:32;;;;;;;0.20;0.00;;;36.80;99.90;;;;;;25659454;23;20206;-70
2022/08/05 13:42:46;;;;;;;0.20;0.00;;;36.90;99.90;;;;;;25702357;23;20226;-70
2022/08/05 13:52:57;;;;;;;0.20;0.00;;;36.80;99.90;;;;;;25704140;23;20197;-71
2022/08/05 14:03:03;;;;;;;0.20;0.00;;;36.60;99.90;;;;;;25702842;23;20286;-70
2022/08/05 14:13:08;;;;;;;0.20;0.00;;;37.30;99.90;;;;;;25704954;23;20185;-72
2022/08/05 14:23:19;;;;;;;0.20;0.00;;;36.50;99.90;;;;;;25704654;23;20169;-73
2022/08/05 14:33:29;;;;;;;0.20;0.00;;;34.30;99.90;;;;;;25695531;23;20201;-72
2022/08/05 14:43:55;;;;;;;0.20;0.00;;;34.40;99.90;;;;;;25705855;23;20158;-72
2022/08/05 14:54:12;;;;;;;0.20;0.00;;;34.20;99.90;;;;;;25697714;23;20178;-72
2022/08/05 15:04:33;;;;;;;0.20;0.00;;;31.90;99.90;;;;;;25697558;23;20198;-71
2022/08/05 15:14:37;;;;;;;0.20;0.00;;;31.30;99.90;;;;;;25698069;23;20206;-71
2022/08/05 15:24:53;;;;;;;0.20;0.00;;;30.60;99.90;;;;;;25694286;23;20166;-68
2022/08/05 15:34:56;;;;;;;0.20;0.00;;;23.00;99.90;;;;;;25696119;23;20194;-69
2022/08/05 15:45:01;;;;;;;0.20;0.00;;;22.00;99.90;;;;;;25696553;23;20162;-71
2022/08/05 15:55:12;;;;;;;0.20;0.00;;;21.90;99.90;;;;;;25696434;23;20182;-74
2022/08/05 16:05:20;;;;;;;0.20;0.00;;;21.80;99.90;;;;;;25668274;23;20197;-72
2022/08/05 16:15:30;;;;;;;0.20;0.00;;;22.20;99.90;;;;;;25670642;23;20177;-71
2022/08/05 16:25:37;;;;;;;0.20;0.00;;;21.70;99.90;;;;;;25694999;23;20186;-70
2022/08/05 16:35:41;;;;;;;0.20;0.10;;;22.10;99.90;;;;;;25693655;23;20185;-71
2022/08/05 16:45:50;;;;;;;0.20;0.00;;;21.90;99.90;;;;;;25693316;23;20208;-76
2022/08/05 16:56:13;;;;;;;0.20;0.00;;;21.90;99.90;;;;;;25693426;23;20174;-72
2022/08/05 17:06:19;;;;;;;0.20;0.00;;;22.00;99.90;;;;;;25693843;23;20206;-70
2022/08/05 17:16:27;;;;;;;0.20;0.03;;;22.10;99.90;;;;;;25682052;23;20150;-73
2022/08/05 17:26:37;;;;;;;0.20;0.00;;;21.80;99.90;;;;;;25695396;23;20190;-73
2022/08/05 17:36:43;;;;;;;0.20;0.00;;;22.00;99.90;;;;;;25695005;23;20181;-73
2022/08/05 17:46:49;;;;;;;0.20;0.10;;;22.30;99.90;;;;;;25692623;23;20255;-73
2022/08/05 17:56:52;;;;;;;0.20;0.00;;;22.90;99.90;;;;;;25692483;23;20716;-74
2022/08/05 18:06:58;;;;;;;0.20;0.00;;;23.10;99.90;;;;;;25692815;23;20266;-74
2022/08/05 18:17:05;;;;;;;0.20;0.00;;;23.10;99.90;;;;;;25693333;23;20170;-72
2022/08/05 18:27:30;;;;;;;0.20;0.00;;;23.70;99.90;;;;;;25699652;23;20186;-72
2022/08/05 18:37:34;;;;;;;0.20;0.00;;;23.40;99.90;;;;;;25700866;23;20186;-72
2022/08/05 18:47:44;;;;;;;0.20;0.00;;;23.50;99.90;;;;;;25700155;23;20190;-72
2022/08/05 18:57:55;;;;;;;0.20;0.00;;;23.50;99.90;;;;;;25700468;23;20160;-73
2022/08/05 19:08:09;;;;;;;0.20;0.00;;;23.80;99.90;;;;;;25696466;23;20209;-72
2022/08/05 19:18:17;;;;;;;0.20;0.00;;;24.10;99.90;;;;;;25693500;23;20174;-70
2022/08/05 19:28:26;;;;;;;0.20;0.00;;;24.20;99.90;;;;;;25681386;23;20186;-74
2022/08/05 19:38:31;;;;;;;0.20;0.00;;;24.10;99.90;;;;;;25692930;23;20166;-72
2022/08/05 19:48:40;;;;;;;0.20;0.00;;;24.00;99.90;;;;;;25694628;23;20266;-74
2022/08/05 19:58:44;;;;;;;0.20;0.00;;;24.00;99.90;;;;;;25667445;23;20238;-73
2022/08/05 22:09:56;;;;;;;0.20;0.00;;;23.80;99.90;;;;;;26090751;22;1878333;-77
2022/08/05 22:20:00;;;;;;;0.20;0.00;;;23.70;99.90;;;;;;26173474;22;20187;-76
2022/08/05 22:30:18;;;;;;;0.20;0.00;;;23.80;99.90;;;;;;26171355;22;20162;-77
2022/08/05 22:40:22;;;;;;;0.20;0.00;;;23.60;99.90;;;;;;26172987;22;20411;-74
2022/08/05 22:50:27;;;;;;;0.20;0.10;;;23.70;99.90;;;;;;26172308;22;20191;-75
2022/08/05 23:00:31;;;;;;;0.20;0.00;;;23.50;99.90;;;;;;26172601;22;20267;-75
2022/08/05 23:10:36;;;;;;;0.20;0.00;;;23.70;99.90;;;;;;26171289;22;20191;-76
2022/08/05 23:20:41;;;;;;;0.20;0.10;;;23.50;99.90;;;;;;26171948;22;20179;-76
2022/08/05 23:30:47;;;;;;;0.20;0.00;;;23.30;99.90;;;;;;26172775;22;20163;-74
2022/08/05 23:40:56;;;;;;;0.20;0.00;;;23.40;99.90;;;;;;26169720;22;20174;-74
2022/08/05 23:51:01;;;;;;;0.20;0.00;;;23.20;99.90;;;;;;26171020;22;20222;-74
